VPBFE LSZA-LESU
Flight info
| Callsign | VPBFE |
|---|---|
| Flight time | N/A |
| Altitude | 35000 |
| Route | OMETO1E OMETO DCT ATMAD DCT VP290 DCT VP028 DCT UPISA DCT |
| Aircraft | B738/M-SDE2E3FGHIRWXY/LB1 |
Departure
| Time | 2026-04-11 15:29 |
|---|---|
| Airport | Lugano Airport (LSZA) |
Arrival
| Time | N/A |
|---|---|
| Airport | Pirineus - la Seu d'Urgel Airport (LESU) |
| Time | Latitude | Longitude | Altitude | Speed | Heading |
|---|---|---|---|---|---|
| 2026-04-11 15:19 | 46.00497 | 8.90937 | 923 ft | 0 kts | 39° |
| 2026-04-11 15:20 | 46.00496 | 8.90936 | 923 ft | 0 kts | 39° |
| 2026-04-11 15:24 | 46.00497 | 8.90937 | 923 ft | 0 kts | 40° |
| 2026-04-11 15:24 | 46.00496 | 8.90943 | 923 ft | 0 kts | 115° |
| 2026-04-11 15:24 | 46.00495 | 8.90944 | 923 ft | 0 kts | 133° |
| 2026-04-11 15:25 | 46.00492 | 8.90949 | 923 ft | 2 kts | 139° |
| 2026-04-11 15:25 | 46.00477 | 8.90965 | 923 ft | 2 kts | 143° |
| 2026-04-11 15:25 | 46.00463 | 8.90984 | 923 ft | 2 kts | 126° |
| 2026-04-11 15:25 | 46.00454 | 8.91015 | 923 ft | 3 kts | 99° |
| 2026-04-11 15:26 | 46.00468 | 8.91071 | 923 ft | 8 kts | 40° |
| 2026-04-11 15:26 | 46.00521 | 8.91107 | 923 ft | 9 kts | 24° |
| 2026-04-11 15:26 | 46.00565 | 8.91134 | 923 ft | 10 kts | 17° |
| 2026-04-11 15:26 | 46.00656 | 8.91174 | 923 ft | 10 kts | 17° |
| 2026-04-11 15:27 | 46.00724 | 8.91204 | 923 ft | 10 kts | 17° |
| 2026-04-11 15:27 | 46.00790 | 8.91235 | 923 ft | 9 kts | 19° |
| 2026-04-11 15:27 | 46.00853 | 8.91271 | 923 ft | 9 kts | 23° |
| 2026-04-11 15:27 | 46.00916 | 8.91308 | 923 ft | 9 kts | 22° |
| 2026-04-11 15:28 | 46.00977 | 8.91338 | 924 ft | 9 kts | 10° |
| 2026-04-11 15:28 | 46.01040 | 8.91341 | 924 ft | 7 kts | 5° |
| 2026-04-11 15:28 | 46.01044 | 8.91372 | 924 ft | 1 kts | 163° |
| 2026-04-11 15:28 | 46.01029 | 8.91367 | 924 ft | 0 kts | 199° |
| 2026-04-11 15:29 | 46.01028 | 8.91367 | 924 ft | 3 kts | 199° |
| 2026-04-11 15:29 | 46.00648 | 8.91174 | 923 ft | 106 kts | 200° |
| 2026-04-11 15:29 | 45.99686 | 8.90696 | 987 ft | 178 kts | 199° |
| 2026-04-11 15:29 | 45.98613 | 8.90022 | 2153 ft | 167 kts | 204° |
| 2026-04-11 15:30 | 45.97634 | 8.89369 | 3285 ft | 162 kts | 205° |
| 2026-04-11 15:30 | 45.96539 | 8.88632 | 3819 ft | 182 kts | 205° |
| 2026-04-11 15:30 | 45.95349 | 8.87851 | 4473 ft | 197 kts | 202° |
| 2026-04-11 15:30 | 45.94003 | 8.87172 | 5142 ft | 212 kts | 195° |
| 2026-04-11 15:31 | 45.92552 | 8.86608 | 5810 ft | 227 kts | 194° |
| 2026-04-11 15:31 | 45.90964 | 8.86025 | 6487 ft | 244 kts | 194° |
| 2026-04-11 15:31 | 45.89267 | 8.85442 | 7190 ft | 259 kts | 191° |
| 2026-04-11 15:31 | 45.87480 | 8.84729 | 7826 ft | 275 kts | 206° |
| 2026-04-11 15:32 | 45.85950 | 8.83022 | 8555 ft | 286 kts | 233° |
| 2026-04-11 15:32 | 45.84855 | 8.80650 | 9464 ft | 290 kts | 242° |
| 2026-04-11 15:32 | 45.83836 | 8.78182 | 10400 ft | 294 kts | 241° |
| 2026-04-11 15:32 | 45.82722 | 8.75665 | 11076 ft | 308 kts | 239° |
| 2026-04-11 15:33 | 45.81478 | 8.73050 | 11720 ft | 323 kts | 237° |
| 2026-04-11 15:33 | 45.80142 | 8.70360 | 12330 ft | 338 kts | 236° |
| 2026-04-11 15:33 | 45.78731 | 8.67566 | 12905 ft | 354 kts | 236° |
| 2026-04-11 15:33 | 45.77274 | 8.64696 | 13471 ft | 368 kts | 236° |
| 2026-04-11 15:34 | 45.75753 | 8.61701 | 14272 ft | 375 kts | 236° |
| 2026-04-11 15:34 | 45.74198 | 8.58638 | 15130 ft | 381 kts | 237° |
| 2026-04-11 15:34 | 45.72635 | 8.55558 | 15987 ft | 385 kts | 237° |
| 2026-04-11 15:34 | 45.71195 | 8.52354 | 16792 ft | 388 kts | 244° |
| 2026-04-11 15:35 | 45.70233 | 8.48791 | 17596 ft | 388 kts | 259° |
| 2026-04-11 15:35 | 45.69984 | 8.44962 | 18404 ft | 389 kts | 274° |
| 2026-04-11 15:35 | 45.70217 | 8.41123 | 19230 ft | 391 kts | 278° |
| 2026-04-11 15:35 | 45.70560 | 8.37273 | 19989 ft | 395 kts | 279° |
| 2026-04-11 15:36 | 45.70943 | 8.33342 | 20849 ft | 397 kts | 278° |
| 2026-04-11 15:36 | 45.71330 | 8.29425 | 21579 ft | 402 kts | 278° |
| 2026-04-11 15:36 | 45.71723 | 8.25396 | 22323 ft | 406 kts | 278° |
| 2026-04-11 15:36 | 45.72106 | 8.21387 | 23076 ft | 409 kts | 278° |
| 2026-04-11 15:37 | 45.72483 | 8.17358 | 23800 ft | 413 kts | 278° |
| 2026-04-11 15:37 | 45.72787 | 8.13227 | 24516 ft | 418 kts | 275° |
| 2026-04-11 15:37 | 45.72798 | 8.09034 | 25170 ft | 423 kts | 266° |
| 2026-04-11 15:37 | 45.72319 | 8.04879 | 25823 ft | 428 kts | 257° |
| 2026-04-11 15:38 | 45.71349 | 8.00845 | 26530 ft | 432 kts | 248° |
| 2026-04-11 15:38 | 45.69973 | 7.96974 | 27117 ft | 438 kts | 242° |
| 2026-04-11 15:38 | 45.68350 | 7.93240 | 27719 ft | 442 kts | 238° |
| 2026-04-11 15:38 | 45.66632 | 7.89617 | 28329 ft | 446 kts | 237° |
| 2026-04-11 15:39 | 45.64836 | 7.85966 | 28910 ft | 449 kts | 236° |
| 2026-04-11 15:39 | 45.62992 | 7.82272 | 29509 ft | 452 kts | 236° |
| 2026-04-11 15:39 | 45.61172 | 7.78642 | 30019 ft | 456 kts | 236° |
| 2026-04-11 15:39 | 45.59325 | 7.74955 | 30740 ft | 453 kts | 236° |
| 2026-04-11 15:40 | 45.57528 | 7.71363 | 31683 ft | 446 kts | 236° |
| 2026-04-11 15:40 | 45.55736 | 7.67775 | 32512 ft | 441 kts | 236° |
| 2026-04-11 15:40 | 45.53946 | 7.64185 | 33176 ft | 438 kts | 236° |
| 2026-04-11 15:40 | 45.52185 | 7.60645 | 33833 ft | 435 kts | 236° |
| 2026-04-11 15:41 | 45.50450 | 7.57158 | 34543 ft | 430 kts | 236° |
| 2026-04-11 15:41 | 45.48731 | 7.53704 | 34971 ft | 429 kts | 236° |
| 2026-04-11 15:41 | 45.45251 | 7.46718 | 35067 ft | 431 kts | 235° |
| 2026-04-11 15:42 | 45.41763 | 7.39729 | 35084 ft | 431 kts | 235° |
| 2026-04-11 15:43 | 45.36552 | 7.29311 | 35094 ft | 431 kts | 234° |
| 2026-04-11 15:43 | 45.33051 | 7.22336 | 35105 ft | 431 kts | 234° |
| 2026-04-11 15:44 | 45.29558 | 7.15399 | 35121 ft | 431 kts | 235° |
| 2026-04-11 15:44 | 45.26071 | 7.08493 | 35129 ft | 431 kts | 234° |
| 2026-04-11 15:45 | 45.22543 | 7.01521 | 35142 ft | 431 kts | 234° |
| 2026-04-11 15:45 | 45.18941 | 6.94788 | 35137 ft | 431 kts | 232° |
| 2026-04-11 15:46 | 45.15082 | 6.88190 | 35134 ft | 433 kts | 231° |
| 2026-04-11 15:46 | 45.11193 | 6.81617 | 35129 ft | 433 kts | 231° |
| 2026-04-11 15:47 | 45.07329 | 6.75045 | 35120 ft | 434 kts | 231° |
| 2026-04-11 15:47 | 45.03472 | 6.68454 | 35111 ft | 433 kts | 231° |
| 2026-04-11 15:48 | 44.99651 | 6.61919 | 35114 ft | 432 kts | 231° |
| 2026-04-11 15:48 | 44.95818 | 6.55374 | 35111 ft | 433 kts | 232° |
| 2026-04-11 15:49 | 44.91982 | 6.48835 | 35097 ft | 432 kts | 232° |
| 2026-04-11 15:49 | 44.88166 | 6.42342 | 35092 ft | 433 kts | 232° |
| 2026-04-11 15:50 | 44.84478 | 6.36087 | 35100 ft | 434 kts | 232° |
| 2026-04-11 15:50 | 44.80659 | 6.29624 | 35082 ft | 433 kts | 231° |
| 2026-04-11 15:51 | 44.76821 | 6.23149 | 35088 ft | 432 kts | 231° |
| 2026-04-11 15:51 | 44.72992 | 6.16702 | 35078 ft | 435 kts | 231° |
| 2026-04-11 15:52 | 44.69142 | 6.10228 | 35075 ft | 434 kts | 231° |
| 2026-04-11 15:52 | 44.65276 | 6.03740 | 35062 ft | 434 kts | 231° |
| 2026-04-11 15:53 | 44.61388 | 5.97232 | 35049 ft | 435 kts | 231° |
| 2026-04-11 15:53 | 44.57505 | 5.90749 | 35027 ft | 434 kts | 231° |
| 2026-04-11 15:54 | 44.53615 | 5.84270 | 35025 ft | 435 kts | 231° |
| 2026-04-11 15:54 | 44.49692 | 5.77748 | 35014 ft | 435 kts | 232° |
| 2026-04-11 15:55 | 44.45786 | 5.71273 | 35011 ft | 437 kts | 231° |
| 2026-04-11 15:55 | 44.41861 | 5.64784 | 35012 ft | 437 kts | 231° |
| 2026-04-11 15:56 | 44.37920 | 5.58279 | 35012 ft | 437 kts | 231° |
| 2026-04-11 15:56 | 44.33966 | 5.51767 | 35001 ft | 439 kts | 231° |
| 2026-04-11 15:57 | 44.30003 | 5.45255 | 34992 ft | 438 kts | 232° |
| 2026-04-11 15:57 | 44.26052 | 5.38777 | 34973 ft | 438 kts | 232° |
| 2026-04-11 15:58 | 44.22144 | 5.32386 | 34957 ft | 440 kts | 231° |
| 2026-04-11 15:58 | 44.18204 | 5.25957 | 34945 ft | 439 kts | 231° |
| 2026-04-11 15:59 | 44.14208 | 5.19449 | 34941 ft | 440 kts | 231° |
| 2026-04-11 15:59 | 44.10223 | 5.12971 | 34935 ft | 441 kts | 231° |
| 2026-04-11 16:00 | 44.06218 | 5.06478 | 34929 ft | 442 kts | 231° |
| 2026-04-11 16:00 | 44.02370 | 4.99831 | 34922 ft | 439 kts | 235° |
| 2026-04-11 16:01 | 43.98811 | 4.92928 | 34919 ft | 439 kts | 237° |
| 2026-04-11 16:01 | 43.95288 | 4.85996 | 34918 ft | 440 kts | 236° |
| 2026-04-11 16:02 | 43.91744 | 4.79109 | 34921 ft | 436 kts | 236° |
| 2026-04-11 16:02 | 43.88193 | 4.72290 | 34922 ft | 436 kts | 236° |
| 2026-04-11 16:03 | 43.84606 | 4.65454 | 34922 ft | 436 kts | 236° |
| 2026-04-11 16:03 | 43.81048 | 4.58707 | 34925 ft | 436 kts | 236° |
| 2026-04-11 16:04 | 43.77468 | 4.51940 | 34929 ft | 436 kts | 235° |
| 2026-04-11 16:04 | 43.73885 | 4.45181 | 34930 ft | 435 kts | 235° |
| 2026-04-11 16:05 | 43.70297 | 4.38430 | 34931 ft | 434 kts | 235° |
| 2026-04-11 16:05 | 43.66743 | 4.31761 | 34928 ft | 434 kts | 234° |
| 2026-04-11 16:06 | 43.61373 | 4.21710 | 34932 ft | 435 kts | 234° |
| 2026-04-11 16:06 | 43.57785 | 4.15013 | 34928 ft | 432 kts | 234° |
| 2026-04-11 16:07 | 43.54190 | 4.08319 | 34928 ft | 435 kts | 234° |
| 2026-04-11 16:07 | 43.50583 | 4.01620 | 34922 ft | 434 kts | 234° |
| 2026-04-11 16:08 | 43.46982 | 3.94947 | 34918 ft | 432 kts | 234° |
| 2026-04-11 16:08 | 43.43389 | 3.88302 | 34919 ft | 434 kts | 234° |
| 2026-04-11 16:09 | 43.39785 | 3.81650 | 34919 ft | 431 kts | 234° |
| 2026-04-11 16:09 | 43.36183 | 3.75018 | 34922 ft | 432 kts | 234° |
| 2026-04-11 16:10 | 43.32584 | 3.68407 | 34923 ft | 432 kts | 234° |
| 2026-04-11 16:10 | 43.28958 | 3.61762 | 34925 ft | 432 kts | 234° |
| 2026-04-11 16:11 | 43.25355 | 3.55177 | 34930 ft | 430 kts | 234° |
| 2026-04-11 16:11 | 43.21755 | 3.48608 | 34932 ft | 431 kts | 234° |
| 2026-04-11 16:12 | 43.18160 | 3.42062 | 34934 ft | 431 kts | 234° |
| 2026-04-11 16:12 | 43.14527 | 3.35464 | 34935 ft | 432 kts | 234° |
| 2026-04-11 16:13 | 43.10930 | 3.28944 | 34938 ft | 431 kts | 233° |
| 2026-04-11 16:13 | 43.07325 | 3.22424 | 34937 ft | 433 kts | 233° |
| 2026-04-11 16:14 | 43.03663 | 3.15817 | 34945 ft | 430 kts | 233° |
| 2026-04-11 16:14 | 43.00031 | 3.09279 | 34943 ft | 431 kts | 233° |
| 2026-04-11 16:15 | 42.96392 | 3.02743 | 34942 ft | 431 kts | 233° |
| 2026-04-11 16:15 | 42.92770 | 2.96250 | 34948 ft | 429 kts | 233° |
| 2026-04-11 16:16 | 42.89106 | 2.89696 | 34955 ft | 430 kts | 233° |
| 2026-04-11 16:16 | 42.85504 | 2.83268 | 34960 ft | 429 kts | 233° |
| 2026-04-11 16:17 | 42.81920 | 2.76886 | 34956 ft | 430 kts | 233° |
| 2026-04-11 16:17 | 42.78263 | 2.70390 | 34959 ft | 430 kts | 233° |
| 2026-04-11 16:18 | 42.74642 | 2.63971 | 34963 ft | 428 kts | 233° |
| 2026-04-11 16:18 | 42.70996 | 2.57520 | 34965 ft | 429 kts | 232° |
| 2026-04-11 16:19 | 42.67352 | 2.51124 | 34973 ft | 428 kts | 230° |
| 2026-04-11 16:19 | 42.62912 | 2.45740 | 34999 ft | 429 kts | 218° |
| 2026-04-11 16:20 | 42.58023 | 2.41129 | 35030 ft | 428 kts | 216° |
| 2026-04-11 16:20 | 42.53121 | 2.36555 | 35055 ft | 428 kts | 217° |
| 2026-04-11 16:21 | 42.48296 | 2.31898 | 35063 ft | 425 kts | 217° |
| 2026-04-11 16:21 | 42.45892 | 2.29533 | 34731 ft | 421 kts | 217° |
| 2026-04-11 16:21 | 42.43562 | 2.27229 | 34184 ft | 416 kts | 217° |
| 2026-04-11 16:22 | 42.41234 | 2.24918 | 33521 ft | 414 kts | 217° |
| 2026-04-11 16:22 | 42.38909 | 2.22606 | 32793 ft | 413 kts | 217° |
| 2026-04-11 16:22 | 42.36600 | 2.20308 | 32030 ft | 413 kts | 217° |
| 2026-04-11 16:22 | 42.34296 | 2.18017 | 31249 ft | 413 kts | 217° |
| 2026-04-11 16:23 | 42.31989 | 2.15724 | 30448 ft | 415 kts | 217° |
| 2026-04-11 16:23 | 42.29667 | 2.13417 | 29617 ft | 416 kts | 217° |
| 2026-04-11 16:23 | 42.27336 | 2.11102 | 28757 ft | 417 kts | 217° |
| 2026-04-11 16:23 | 42.24990 | 2.08773 | 27855 ft | 418 kts | 217° |
| 2026-04-11 16:24 | 42.22642 | 2.06444 | 26927 ft | 420 kts | 217° |
| 2026-04-11 16:24 | 42.20268 | 2.04092 | 25959 ft | 422 kts | 217° |
| 2026-04-11 16:24 | 42.17911 | 2.01760 | 24981 ft | 425 kts | 217° |
| 2026-04-11 16:24 | 42.15545 | 1.99421 | 24442 ft | 428 kts | 217° |
| 2026-04-11 16:25 | 42.13089 | 1.96996 | 24072 ft | 441 kts | 217° |
| 2026-04-11 16:25 | 42.10607 | 1.94551 | 23452 ft | 439 kts | 217° |
| 2026-04-11 16:25 | 42.08171 | 1.92155 | 22791 ft | 432 kts | 217° |
| 2026-04-11 16:25 | 42.05738 | 1.89765 | 22118 ft | 426 kts | 217° |
| 2026-04-11 16:26 | 42.03381 | 1.87452 | 21451 ft | 420 kts | 216° |
| 2026-04-11 16:26 | 42.01011 | 1.85127 | 20762 ft | 415 kts | 216° |
| 2026-04-11 16:26 | 41.98709 | 1.82870 | 20090 ft | 409 kts | 216° |
| 2026-04-11 16:26 | 41.96416 | 1.80623 | 19418 ft | 404 kts | 216° |
| 2026-04-11 16:27 | 41.94188 | 1.78442 | 18761 ft | 399 kts | 216° |
| 2026-04-11 16:27 | 41.91934 | 1.76238 | 18431 ft | 400 kts | 216° |
| 2026-04-11 16:27 | 41.89685 | 1.74040 | 17935 ft | 402 kts | 216° |
| 2026-04-11 16:27 | 41.87436 | 1.71844 | 17307 ft | 396 kts | 215° |
| 2026-04-11 16:28 | 41.85260 | 1.69637 | 16613 ft | 392 kts | 219° |
| 2026-04-11 16:28 | 41.83357 | 1.67061 | 15930 ft | 390 kts | 230° |
| 2026-04-11 16:28 | 41.82007 | 1.63929 | 15270 ft | 389 kts | 245° |
| 2026-04-11 16:28 | 41.81270 | 1.60449 | 14608 ft | 389 kts | 257° |
| 2026-04-11 16:29 | 41.81029 | 1.56838 | 13919 ft | 389 kts | 266° |
| 2026-04-11 16:29 | 41.81286 | 1.53259 | 13256 ft | 390 kts | 280° |
| 2026-04-11 16:29 | 41.82213 | 1.49849 | 12575 ft | 392 kts | 293° |
| 2026-04-11 16:29 | 41.83487 | 1.46646 | 11884 ft | 390 kts | 297° |
| 2026-04-11 16:30 | 41.84846 | 1.43516 | 11347 ft | 383 kts | 298° |
| 2026-04-11 16:30 | 41.86196 | 1.40487 | 11003 ft | 365 kts | 298° |
| 2026-04-11 16:30 | 41.87446 | 1.37692 | 10896 ft | 335 kts | 298° |
| 2026-04-11 16:30 | 41.88579 | 1.35127 | 10736 ft | 311 kts | 298° |
| 2026-04-11 16:31 | 41.89642 | 1.32684 | 10566 ft | 290 kts | 296° |
| 2026-04-11 16:31 | 41.90632 | 1.30373 | 10091 ft | 284 kts | 296° |
| 2026-04-11 16:31 | 41.91607 | 1.28071 | 9594 ft | 280 kts | 296° |
| 2026-04-11 16:31 | 41.92662 | 1.25910 | 9165 ft | 279 kts | 308° |
| 2026-04-11 16:32 | 41.94202 | 1.24258 | 8919 ft | 290 kts | 335° |
| 2026-04-11 16:32 | 41.96125 | 1.23696 | 8674 ft | 280 kts | 0° |
| 2026-04-11 16:32 | 41.98035 | 1.23862 | 8439 ft | 266 kts | 5° |
| 2026-04-11 16:32 | 41.99845 | 1.24080 | 8205 ft | 254 kts | 4° |
| 2026-04-11 16:33 | 42.01566 | 1.24262 | 7973 ft | 242 kts | 4° |
| 2026-04-11 16:33 | 42.03220 | 1.24417 | 7743 ft | 237 kts | 3° |
| 2026-04-11 16:33 | 42.04866 | 1.24561 | 7514 ft | 237 kts | 3° |
| 2026-04-11 16:33 | 42.06493 | 1.24700 | 7366 ft | 233 kts | 3° |
| 2026-04-11 16:34 | 42.08134 | 1.24867 | 7381 ft | 236 kts | 7° |
| 2026-04-11 16:34 | 42.09723 | 1.25420 | 7389 ft | 234 kts | 22° |
| 2026-04-11 16:34 | 42.11192 | 1.26350 | 7391 ft | 235 kts | 27° |
| 2026-04-11 16:34 | 42.12661 | 1.27345 | 7367 ft | 236 kts | 27° |
| 2026-04-11 16:35 | 42.14102 | 1.28282 | 7228 ft | 223 kts | 25° |
| 2026-04-11 16:35 | 42.15493 | 1.29152 | 7049 ft | 214 kts | 25° |
| 2026-04-11 16:35 | 42.16819 | 1.29971 | 6866 ft | 203 kts | 25° |
| 2026-04-11 16:35 | 42.18063 | 1.30737 | 6678 ft | 193 kts | 25° |
| 2026-04-11 16:36 | 42.19283 | 1.31488 | 6370 ft | 192 kts | 24° |
| 2026-04-11 16:36 | 42.20511 | 1.32247 | 5960 ft | 191 kts | 25° |
| 2026-04-11 16:36 | 42.21692 | 1.32982 | 5807 ft | 187 kts | 24° |
| 2026-04-11 16:36 | 42.22872 | 1.33716 | 5675 ft | 178 kts | 24° |
| 2026-04-11 16:37 | 42.23924 | 1.34367 | 5499 ft | 160 kts | 24° |
| 2026-04-11 16:37 | 42.24912 | 1.34975 | 5246 ft | 154 kts | 24° |
| 2026-04-11 16:37 | 42.25892 | 1.35582 | 4888 ft | 154 kts | 25° |
| 2026-04-11 16:37 | 42.26856 | 1.36180 | 4588 ft | 152 kts | 25° |
| 2026-04-11 16:38 | 42.27828 | 1.36781 | 4352 ft | 154 kts | 25° |
| 2026-04-11 16:38 | 42.28805 | 1.37407 | 4082 ft | 155 kts | 26° |
| 2026-04-11 16:38 | 42.29783 | 1.38036 | 3777 ft | 155 kts | 25° |
| 2026-04-11 16:38 | 42.30755 | 1.38645 | 3502 ft | 153 kts | 26° |
| 2026-04-11 16:39 | 42.31732 | 1.39254 | 3211 ft | 156 kts | 25° |
| 2026-04-11 16:39 | 42.32677 | 1.39914 | 2872 ft | 150 kts | 31° |
| 2026-04-11 16:39 | 42.33584 | 1.40641 | 2657 ft | 151 kts | 32° |
| 2026-04-11 16:39 | 42.34418 | 1.41320 | 2648 ft | 120 kts | 30° |